Terminal Aerodrome Forecast
Issued by NWS

Current Version | Previous Version | Text Only | Print | Product List | Glossary On
Versions: 1 2 3 4 5 6 7 8 9 10 11 12 13 14 15 16 17 18 19 20 21
000
FTUS44 KMAF 022325
TAFCNM
TAF
KCNM 022325Z 0300/0324 17009KT P6SM SCT100 BKN200
      TEMPO 0300/0302 VRB15G25KT 6SM TSRA BKN080CB=

USA.gov is the U.S. government's official web portal to all federal, state and local government web resources and services.